createdAt,value
2023-03-29T01:13:19.484Z,51.290806
2023-03-29T01:14:19.018Z,51.290806
2023-03-29T01:15:18.867Z,51.291004
2023-03-29T01:16:54.056Z,51.291241
2023-03-29T01:17:19.021Z,51.291214
2023-03-29T01:18:18.982Z,51.291233
2023-03-29T01:19:18.751Z,51.291420
2023-03-29T01:20:18.737Z,51.291252
2023-03-29T01:21:18.646Z,51.291100
2023-03-29T01:22:18.697Z,51.290924
2023-03-29T02:43:41.604Z,51.291328
2023-03-29T02:44:41.587Z,51.291367
2023-03-29T02:45:41.650Z,51.291283
2023-03-29T02:46:41.613Z,51.291302
2023-03-29T02:47:41.643Z,51.291191
2023-03-29T02:48:41.534Z,51.291252
2023-03-29T02:49:41.539Z,51.291363
2023-03-29T02:50:41.739Z,51.291214
2023-03-29T02:51:41.496Z,51.291210
2023-03-29T02:52:41.513Z,51.291645
2023-03-29T02:53:41.480Z,51.291149
2023-03-29T02:54:41.476Z,51.290771
2023-03-29T02:55:41.571Z,51.290878
2023-03-29T02:56:41.514Z,51.291073
2023-03-29T02:57:41.423Z,51.291134
2023-03-29T02:58:41.438Z,51.291203
2023-03-29T02:59:41.441Z,51.291195
2023-03-29T03:00:41.428Z,51.291451
2023-03-29T03:01:41.456Z,51.291233
2023-03-29T03:02:41.428Z,51.291225
2023-03-29T03:03:41.508Z,51.291325
2023-03-29T03:04:41.374Z,51.291325
2023-03-29T03:05:41.348Z,51.291325
2023-03-29T03:06:41.533Z,51.291325
2023-03-29T03:07:41.378Z,51.291134
2023-03-29T03:08:41.301Z,51.291130
2023-03-29T03:09:41.314Z,51.291267
2023-03-29T03:10:41.269Z,51.291348
2023-03-29T03:11:41.274Z,51.291203
2023-03-29T03:12:41.328Z,51.291168
2023-03-29T03:13:41.257Z,51.291008
2023-03-29T03:14:41.228Z,51.291069
2023-03-29T03:15:41.242Z,51.291225
2023-03-29T03:16:41.322Z,51.290894
2023-03-29T03:17:41.259Z,51.291069
2023-03-29T03:18:41.195Z,51.291050
2023-03-29T03:19:41.612Z,51.290852
2023-03-29T03:20:41.178Z,51.290668
2023-03-29T03:21:41.167Z,51.290752
2023-03-29T03:22:41.178Z,51.291271
2023-03-29T03:23:41.132Z,51.291126
2023-03-29T03:24:41.130Z,51.291218
2023-03-29T03:25:41.088Z,51.291218
2023-03-29T03:26:41.085Z,51.291218
2023-03-29T03:27:41.112Z,51.291279
2023-03-29T03:28:41.441Z,51.290874
2023-03-29T03:29:41.067Z,51.290657
2023-03-29T03:30:41.047Z,51.290657
2023-03-29T03:31:41.064Z,51.290657
2023-03-29T03:32:41.099Z,51.290657
2023-03-29T03:33:41.007Z,51.290657
2023-03-29T03:34:41.043Z,51.290657
2023-03-29T03:35:41.036Z,51.291264
2023-03-29T03:36:40.974Z,51.291157
2023-03-29T03:37:41.002Z,51.291096
2023-03-29T03:38:40.983Z,51.291084
2023-03-29T03:39:40.956Z,51.290920
2023-03-29T03:40:40.984Z,51.290783
2023-03-29T03:41:40.939Z,51.290440
2023-03-29T03:42:40.936Z,51.290821
2023-03-29T03:43:40.987Z,51.290932
2023-03-29T03:44:40.913Z,51.290924
2023-03-29T03:45:40.928Z,51.291222
2023-03-29T03:46:40.875Z,51.290943
2023-03-29T03:47:40.930Z,51.290749
2023-03-29T03:48:40.865Z,51.290779
2023-03-29T03:49:40.850Z,51.290779
2023-03-29T03:50:40.820Z,51.290779
2023-03-29T03:51:40.836Z,51.290779
2023-03-29T03:52:40.801Z,51.290779
2023-03-29T03:53:40.766Z,51.290779
2023-03-29T03:54:40.796Z,51.290779
2023-03-29T03:55:40.794Z,51.290779
2023-03-29T03:56:40.778Z,51.290779
2023-03-29T03:57:40.825Z,51.290779
2023-03-29T03:58:40.756Z,51.290779
2023-03-29T03:59:40.743Z,51.290779
2023-03-29T04:54:36.433Z,51.292896
2023-03-29T04:55:36.426Z,51.292896
2023-03-29T04:56:36.356Z,51.290840
2023-03-29T04:57:36.385Z,51.291351
2023-03-29T04:58:36.344Z,51.291790
2023-03-29T04:59:36.348Z,51.292767
2023-03-29T05:00:36.489Z,51.292210
2023-03-29T05:01:36.434Z,51.292305
2023-03-29T05:02:36.324Z,51.292305
2023-03-29T05:03:36.301Z,51.292305
2023-03-29T05:04:36.292Z,51.292305
2023-03-29T05:05:36.296Z,51.292305
2023-03-29T05:06:36.265Z,51.292305
2023-03-29T05:07:36.228Z,51.292305
2023-03-29T05:08:36.239Z,51.292305
2023-03-29T05:09:36.199Z,51.292305
2023-03-29T05:10:36.223Z,51.292305
2023-03-29T05:11:36.218Z,51.292305
2023-03-29T05:12:36.182Z,51.292305
2023-03-29T05:13:36.178Z,51.292305
2023-03-29T05:14:36.172Z,51.292305
2023-03-29T05:15:36.138Z,51.292305
2023-03-29T05:16:36.203Z,51.292305
2023-03-29T05:17:36.220Z,51.292305
2023-03-29T05:18:36.098Z,51.292305
2023-03-29T05:19:36.100Z,51.292305
2023-03-29T05:20:36.104Z,51.292305
2023-03-29T05:21:36.084Z,51.292305
2023-03-29T05:22:36.067Z,51.292305
2023-03-29T05:23:36.051Z,51.292305
2023-03-29T05:24:36.060Z,51.292305
2023-03-29T05:25:36.023Z,51.292305
2023-03-29T05:26:35.997Z,51.292305
2023-03-29T05:27:36.013Z,51.292305
2023-03-29T05:28:36.004Z,51.292305
2023-03-29T05:29:36.005Z,51.292305
2023-03-29T05:30:35.978Z,51.292305
2023-03-29T05:31:35.994Z,51.292305
2023-03-29T05:32:36.012Z,51.292305
2023-03-29T05:33:35.934Z,51.292305
2023-03-29T05:34:35.923Z,51.292305
2023-03-29T05:35:36.042Z,51.292305
2023-03-29T05:36:36.063Z,51.292305
2023-03-29T05:37:35.936Z,51.292305
2023-03-29T05:38:35.938Z,51.292305
2023-03-29T05:39:37.610Z,51.292305
2023-03-29T05:40:35.875Z,51.292305
2023-03-29T05:41:35.860Z,51.292305
2023-03-29T05:42:35.833Z,51.292305
2023-03-29T05:43:35.888Z,51.292305
2023-03-29T05:44:35.817Z,51.292305
2023-03-29T05:45:35.860Z,51.292305
2023-03-29T05:46:35.787Z,51.292305
2023-03-29T05:47:35.802Z,51.292305
2023-03-29T05:48:35.812Z,51.292305
2023-03-29T05:49:35.730Z,51.292305
2023-03-29T05:50:35.754Z,51.292305
2023-03-29T05:51:35.701Z,51.292305
2023-03-29T05:52:35.694Z,51.292305
2023-03-29T05:53:35.836Z,51.292305
2023-03-29T05:54:35.699Z,51.292305
2023-03-29T05:55:35.677Z,51.292305
2023-03-29T05:56:36.057Z,51.291130
2023-03-29T05:57:35.639Z,51.291206
2023-03-29T05:58:35.652Z,51.291267
2023-03-29T05:59:35.636Z,51.291248
2023-03-29T06:00:35.606Z,51.291409
2023-03-29T06:01:35.594Z,51.291302
2023-03-29T06:02:35.630Z,51.291237
2023-03-29T06:03:35.754Z,51.291294
2023-03-29T06:04:35.657Z,51.291191
2023-03-29T06:17:51.498Z,51.291309
2023-03-29T06:18:51.385Z,51.291500
2023-03-29T06:19:51.417Z,51.291500
2023-03-29T06:20:52.353Z,51.292572
2023-03-29T06:21:51.364Z,51.292618
2023-03-29T06:23:02.196Z,51.292568
2023-03-29T06:23:52.345Z,51.292591
2023-03-29T06:24:51.336Z,51.292606
2023-03-29T06:26:12.457Z,51.292648
2023-03-29T06:26:52.684Z,51.292648
2023-03-29T06:27:51.312Z,51.292648
2023-03-29T06:28:52.356Z,51.292648
2023-03-29T06:29:51.270Z,51.292648
2023-03-29T06:30:51.354Z,51.292648
2023-03-29T06:31:51.341Z,51.292648
2023-03-29T06:32:51.261Z,51.292648
2023-03-29T06:33:51.251Z,51.292648
2023-03-29T06:34:51.217Z,51.292648
2023-03-29T06:35:51.284Z,51.292648
2023-03-29T06:36:51.238Z,51.292648
2023-03-29T06:37:51.181Z,51.292648
2023-03-29T06:38:51.152Z,51.292648
2023-03-29T06:39:53.303Z,51.292648
2023-03-29T06:40:51.143Z,51.292648
2023-03-29T06:41:51.152Z,51.292648
2023-03-29T06:42:51.121Z,51.292648
2023-03-29T06:43:51.111Z,51.292648
2023-03-29T06:44:51.083Z,51.292648
2023-03-29T06:45:51.103Z,51.292648
2023-03-29T06:46:51.170Z,51.292648
2023-03-29T06:47:51.180Z,51.292648
2023-03-29T06:48:51.068Z,51.292648
2023-03-29T06:49:51.077Z,51.292648
2023-03-29T06:50:51.060Z,51.289188
2023-03-29T06:51:51.013Z,51.291317
2023-03-29T06:52:51.077Z,51.291069
2023-03-29T06:53:51.043Z,51.291245
2023-03-29T06:54:50.985Z,51.291264
2023-03-29T06:55:50.990Z,51.291157
2023-03-29T06:56:51.009Z,51.291229
2023-03-29T06:57:50.954Z,51.291191
2023-03-29T06:58:51.009Z,51.291267
2023-03-29T06:59:50.966Z,51.291367
2023-03-29T07:00:51.932Z,51.291203
2023-03-29T07:01:50.948Z,51.291222
2023-03-29T07:02:50.944Z,51.291218
2023-03-29T07:03:50.912Z,51.291157
2023-03-29T07:04:51.053Z,51.291172
2023-03-29T07:05:50.894Z,51.291161
2023-03-29T07:06:50.848Z,51.291115
2023-03-29T07:07:50.836Z,51.291187
2023-03-29T07:08:50.877Z,51.291199
2023-03-29T07:09:51.833Z,51.291164
2023-03-29T07:10:50.855Z,51.291172
2023-03-29T07:11:50.805Z,51.291138
2023-03-29T07:12:50.813Z,51.291168
2023-03-29T07:13:50.837Z,51.291180
2023-03-29T07:14:50.770Z,51.291172
2023-03-29T07:15:50.820Z,51.291187
2023-03-29T07:16:50.728Z,51.291210
2023-03-29T07:17:50.811Z,51.291222
2023-03-29T07:18:50.718Z,51.291222
2023-03-29T07:19:50.758Z,51.291191
2023-03-29T07:20:50.697Z,51.291214
2023-03-29T07:21:50.946Z,51.291279
2023-03-29T07:22:50.684Z,51.291222
2023-03-29T07:23:50.697Z,51.291183
2023-03-29T07:24:50.801Z,51.291145
2023-03-29T07:25:50.656Z,51.291180
2023-03-29T07:27:03.228Z,51.291199
2023-03-29T07:27:50.665Z,51.291164
2023-03-29T07:28:50.587Z,51.291210
2023-03-29T07:29:50.788Z,51.291264
2023-03-29T07:30:50.613Z,51.291222
2023-03-29T07:31:50.573Z,51.291256
2023-03-29T07:32:50.642Z,51.291225
2023-03-29T07:33:50.627Z,51.291134
2023-03-29T07:34:50.563Z,51.291153
2023-03-29T07:35:50.591Z,51.291180
2023-03-29T07:36:50.565Z,51.291180
2023-03-29T07:37:50.521Z,51.291183
2023-03-29T07:38:50.511Z,51.291210
2023-03-29T07:39:50.480Z,51.291260
2023-03-29T07:40:50.610Z,51.291294
2023-03-29T07:41:50.465Z,51.291180
2023-03-29T07:42:50.449Z,51.291142
2023-03-29T07:43:50.429Z,51.291176
2023-03-29T07:44:50.415Z,51.291206
2023-03-29T07:45:50.502Z,51.291267
2023-03-29T07:46:50.465Z,51.291267
2023-03-29T07:47:50.412Z,51.291138
2023-03-29T07:48:50.398Z,51.291168
2023-03-29T07:49:50.394Z,51.291172
2023-03-29T07:50:50.346Z,51.291191
2023-03-29T07:51:50.411Z,51.291267
2023-03-29T07:52:50.368Z,51.291241
2023-03-29T07:53:50.719Z,51.291222
2023-03-29T07:54:50.344Z,51.291191
2023-03-29T07:55:50.306Z,51.291191
2023-03-29T07:56:50.312Z,51.291069
2023-03-29T07:57:50.355Z,51.291195
2023-03-29T07:58:50.286Z,51.291134
2023-03-29T07:59:50.288Z,51.291061
2023-03-29T08:00:50.324Z,51.291050
2023-03-29T08:01:50.246Z,51.291115
2023-03-29T08:02:50.613Z,51.291103
2023-03-29T08:03:50.232Z,51.291164
2023-03-29T08:04:50.240Z,51.291126
2023-03-29T08:05:50.199Z,51.291203
2023-03-29T08:06:50.199Z,51.291100
2023-03-29T08:07:50.214Z,51.291100
2023-03-29T08:08:50.175Z,51.291134
2023-03-29T08:09:50.147Z,51.291122
2023-03-29T08:10:50.131Z,51.291161
2023-03-29T08:11:50.133Z,51.291161
2023-03-29T08:12:50.161Z,51.291187
2023-03-29T08:13:50.095Z,51.291180
2023-03-29T08:14:50.137Z,51.291176
2023-03-29T08:15:50.084Z,51.291134
2023-03-29T08:16:50.110Z,51.291042
2023-03-29T08:17:50.143Z,51.291161
2023-03-29T08:18:50.082Z,51.291096
2023-03-29T08:19:51.270Z,51.291080
2023-03-29T08:20:50.074Z,51.291187
2023-03-29T08:21:50.005Z,51.291199
2023-03-29T08:22:49.981Z,51.291206
2023-03-29T08:23:50.037Z,51.291218
2023-03-29T08:24:49.970Z,51.291233
2023-03-29T08:25:49.961Z,51.291180
2023-03-29T08:26:49.965Z,51.291252
2023-03-29T08:27:49.941Z,51.291302
2023-03-29T08:28:49.919Z,51.291256
2023-03-29T08:29:49.946Z,51.291225
2023-03-29T08:30:49.918Z,51.291256
2023-03-29T08:31:49.885Z,51.291294
2023-03-29T08:32:52.185Z,51.291252
2023-03-29T08:33:49.873Z,51.291023
2023-03-29T08:34:49.881Z,51.291039
2023-03-29T08:35:49.860Z,51.291245
2023-03-29T08:36:49.840Z,51.291210
2023-03-29T08:37:49.818Z,51.291336
2023-03-29T08:38:49.814Z,51.291351
2023-03-29T08:39:49.800Z,51.291393
2023-03-29T08:40:49.795Z,51.291218
2023-03-29T08:41:49.772Z,51.291260
2023-03-29T08:42:49.770Z,51.291245
2023-03-29T08:43:49.753Z,51.291237
2023-03-29T08:44:49.759Z,51.291264
2023-03-29T08:45:51.110Z,51.291222
2023-03-29T08:46:49.780Z,51.291203
2023-03-29T08:47:49.796Z,51.291271
2023-03-29T08:48:50.380Z,51.291245
2023-03-29T08:49:49.706Z,51.291241
2023-03-29T08:50:49.689Z,51.291290
2023-03-29T08:51:49.676Z,51.291412
2023-03-29T08:52:49.645Z,51.291176
2023-03-29T08:53:49.636Z,51.291172
2023-03-29T08:54:49.625Z,51.291103
2023-03-29T08:55:49.653Z,51.291061
2023-03-29T08:56:49.815Z,51.291111
2023-03-29T08:57:50.219Z,51.291122
2023-03-29T08:58:49.592Z,51.291214
2023-03-29T08:59:49.574Z,51.291134
2023-03-29T09:00:49.558Z,51.291142
2023-03-29T09:01:49.619Z,51.291119
2023-03-29T09:02:49.572Z,51.291138
2023-03-29T09:03:49.619Z,51.291130
2023-03-29T09:04:49.506Z,51.291100
2023-03-29T09:05:49.493Z,51.291149
2023-03-29T09:06:49.505Z,51.291168
2023-03-29T09:07:49.475Z,51.291058
2023-03-29T09:08:49.486Z,51.291092
2023-03-29T09:09:49.474Z,51.291153
2023-03-29T09:10:49.435Z,51.291233
2023-03-29T09:11:49.445Z,51.291058
2023-03-29T09:12:49.500Z,51.291119
2023-03-29T09:13:49.406Z,51.291061
2023-03-29T09:14:49.400Z,51.291054
2023-03-29T09:15:49.457Z,51.291103
2023-03-29T09:16:49.403Z,51.291157
2023-03-29T09:17:49.809Z,51.291187
2023-03-29T09:18:49.337Z,51.291122
2023-03-29T09:19:49.328Z,51.291023
2023-03-29T09:20:49.313Z,51.291210
2023-03-29T09:21:49.339Z,51.291058
2023-03-29T09:22:49.297Z,51.290901
2023-03-29T09:23:49.293Z,51.290962
2023-03-29T09:24:49.269Z,51.291103
2023-03-29T09:25:53.335Z,51.291161
2023-03-29T09:26:49.242Z,51.291180
2023-03-29T09:27:49.293Z,51.291225
2023-03-29T09:28:49.236Z,51.291138
2023-03-29T09:29:49.219Z,51.291142
2023-03-29T09:30:49.214Z,51.291225
2023-03-29T09:31:49.256Z,51.291168
2023-03-29T09:32:49.238Z,51.291180
2023-03-29T09:33:49.180Z,51.291157
2023-03-29T09:34:49.162Z,51.291080
2023-03-29T09:35:49.191Z,51.290955
2023-03-29T09:36:49.161Z,51.291084
2023-03-29T09:37:49.118Z,51.291077
2023-03-29T09:38:49.136Z,51.291092
2023-03-29T09:39:49.114Z,51.291241
2023-03-29T09:40:49.105Z,51.291100
2023-03-29T09:41:49.227Z,51.291149
2023-03-29T09:42:49.065Z,51.291199
2023-03-29T09:43:49.071Z,51.291351
2023-03-29T09:44:49.051Z,51.291260
2023-03-29T09:45:49.077Z,51.291294
2023-03-29T09:46:49.028Z,51.291191
2023-03-29T09:47:49.056Z,51.291164
2023-03-29T09:48:49.034Z,51.291348
2023-03-29T09:49:48.985Z,51.291031
2023-03-29T09:50:48.978Z,51.291157
2023-03-29T09:51:48.960Z,51.291107
2023-03-29T09:52:48.948Z,51.291172
2023-03-29T09:53:48.966Z,51.291187
2023-03-29T09:54:48.935Z,51.291142
2023-03-29T09:55:50.251Z,51.291172
2023-03-29T09:56:48.941Z,51.291222
2023-03-29T09:57:48.902Z,51.291271
2023-03-29T09:58:48.939Z,51.291096
2023-03-29T09:59:48.876Z,51.291264
2023-03-29T10:00:48.970Z,51.291168
2023-03-29T10:01:48.978Z,51.291023
2023-03-29T10:02:48.968Z,51.291142
2023-03-29T10:03:49.004Z,51.291252
2023-03-29T10:04:48.834Z,51.291157
2023-03-29T10:05:48.823Z,51.291103
2023-03-29T10:06:48.819Z,51.291142
2023-03-29T10:07:48.843Z,51.291107
2023-03-29T10:08:48.820Z,51.291180
2023-03-29T10:09:48.805Z,51.291321
2023-03-29T10:10:48.773Z,51.291225
2023-03-29T10:11:48.795Z,51.291191
2023-03-29T10:12:48.741Z,51.291092
2023-03-29T10:13:48.722Z,51.291149
2023-03-29T10:14:49.487Z,51.291111
2023-03-29T10:15:48.692Z,51.291222
2023-03-29T10:16:48.708Z,51.291325
2023-03-29T10:17:48.733Z,51.291256
2023-03-29T10:18:48.672Z,51.291214
2023-03-29T10:19:48.703Z,51.291233
2023-03-29T10:20:48.653Z,51.291222
2023-03-29T10:21:48.630Z,51.291222
2023-03-29T10:22:48.635Z,51.291336
2023-03-29T10:23:48.619Z,51.291206
2023-03-29T10:24:48.631Z,51.291096
2023-03-29T10:25:48.575Z,51.291111
2023-03-29T10:26:48.628Z,51.291107
2023-03-29T10:27:48.580Z,51.291069
2023-03-29T10:28:48.555Z,51.291012
2023-03-29T10:29:48.544Z,51.291039
2023-03-29T10:30:48.712Z,51.291016
2023-03-29T10:31:48.639Z,51.291084
2023-03-29T10:32:48.567Z,51.291153
2023-03-29T10:33:48.489Z,51.291370
2023-03-29T10:34:48.509Z,51.291359
2023-03-29T10:35:48.495Z,51.291309
2023-03-29T10:36:48.475Z,51.291283
2023-03-29T10:37:48.454Z,51.291492
2023-03-29T10:38:48.436Z,51.291325
2023-03-29T10:39:48.438Z,51.291283
2023-03-29T10:40:48.446Z,51.291271
2023-03-29T10:41:48.422Z,51.291313
2023-03-29T10:42:48.396Z,51.291260
2023-03-29T10:43:48.368Z,51.291325
2023-03-29T10:44:48.363Z,51.291302
2023-03-29T10:45:48.456Z,51.291222
2023-03-29T10:46:48.358Z,51.291203
2023-03-29T10:47:48.541Z,51.291286
2023-03-29T10:48:48.339Z,51.291206
2023-03-29T10:49:48.339Z,51.291340
2023-03-29T10:50:48.289Z,51.291271
2023-03-29T10:51:48.315Z,51.291191
2023-03-29T10:52:48.282Z,51.291245
2023-03-29T10:53:48.307Z,51.291271
2023-03-29T10:54:48.270Z,51.291294
2023-03-29T10:55:48.267Z,51.291241
2023-03-29T10:56:49.089Z,51.291233
2023-03-29T10:57:48.211Z,51.291225
2023-03-29T10:58:48.204Z,51.291275
2023-03-29T10:59:48.192Z,51.291298
2023-03-29T11:00:48.177Z,51.291203
2023-03-29T11:01:48.272Z,51.291176
2023-03-29T11:02:48.236Z,51.291264
2023-03-29T11:03:48.287Z,51.291237
2023-03-29T11:04:48.127Z,51.291283
2023-03-29T11:05:48.148Z,51.291344
2023-03-29T11:06:48.185Z,51.291409
2023-03-29T11:07:48.157Z,51.291340
2023-03-29T11:08:48.106Z,51.291157
2023-03-29T11:09:48.085Z,51.291222
2023-03-29T11:10:48.078Z,51.291218
2023-03-29T11:11:48.100Z,51.291206
2023-03-29T11:12:48.066Z,51.291180
2023-03-29T11:13:48.035Z,51.291119
2023-03-29T11:14:48.011Z,51.291260
2023-03-29T11:15:48.028Z,51.291260
2023-03-29T11:16:47.993Z,51.291286
2023-03-29T11:17:47.996Z,51.291138
2023-03-29T11:18:47.998Z,51.291245
2023-03-29T11:19:47.986Z,51.291260
2023-03-29T11:20:47.935Z,51.291283
2023-03-29T11:21:47.986Z,51.291321
2023-03-29T11:22:47.936Z,51.291176
2023-03-29T11:23:47.970Z,51.291168
2023-03-29T11:24:47.930Z,51.291222
2023-03-29T11:25:47.912Z,51.291180
2023-03-29T11:26:47.883Z,51.291241
2023-03-29T11:27:47.875Z,51.291409
2023-03-29T11:28:47.865Z,51.291283
2023-03-29T11:29:47.894Z,51.291119
2023-03-29T11:30:48.033Z,51.291332
2023-03-29T11:31:47.897Z,51.291584
2023-03-29T11:32:47.874Z,51.291225
2023-03-29T11:33:47.781Z,51.291130
2023-03-29T11:34:47.838Z,51.291229
2023-03-29T11:35:47.771Z,51.291241
2023-03-29T11:36:47.747Z,51.291279
2023-03-29T11:37:47.745Z,51.291298
2023-03-29T11:38:47.706Z,51.291203
2023-03-29T11:39:47.725Z,51.291084
2023-03-29T11:40:47.763Z,51.290993
2023-03-29T11:41:47.686Z,51.291107
2023-03-29T11:42:48.191Z,51.291225
2023-03-29T11:43:47.677Z,51.291187
2023-03-29T11:44:47.662Z,51.291313
2023-03-29T11:45:47.682Z,51.291397
2023-03-29T11:46:47.701Z,51.291473
2023-03-29T11:47:47.715Z,51.291294
2023-03-29T11:48:47.605Z,51.291176
2023-03-29T11:49:47.638Z,51.291191
2023-03-29T11:50:47.591Z,51.291180
2023-03-29T11:51:48.060Z,51.291241
2023-03-29T11:52:47.555Z,51.291420
2023-03-29T11:53:47.575Z,51.291397
2023-03-29T11:54:47.569Z,51.291336
2023-03-29T11:55:47.540Z,51.291142
2023-03-29T11:56:47.785Z,51.291046
2023-03-29T11:57:47.548Z,51.291302
2023-03-29T11:58:47.521Z,51.291206
2023-03-29T11:59:47.558Z,51.291042
2023-03-29T12:00:47.509Z,51.291222
2023-03-29T12:01:47.546Z,51.291206
2023-03-29T12:02:47.860Z,51.291275
2023-03-29T12:03:47.668Z,51.291500
2023-03-29T12:04:48.451Z,51.291508
2023-03-29T12:05:47.444Z,51.291286
2023-03-29T12:06:47.502Z,51.291363
2023-03-29T12:07:47.559Z,51.291363
2023-03-29T12:08:47.385Z,51.291485
2023-03-29T12:09:47.595Z,51.291462
2023-03-29T12:10:47.399Z,51.291756
2023-03-29T12:11:47.334Z,51.291924
2023-03-29T12:12:47.342Z,51.292164
2023-03-29T12:13:47.379Z,51.292194
2023-03-29T12:14:47.402Z,51.291958
2023-03-29T12:15:47.300Z,51.291813
2023-03-29T12:16:47.301Z,51.291679
2023-03-29T12:17:47.357Z,51.291790
2023-03-29T12:18:47.310Z,51.291504
2023-03-29T12:19:47.265Z,51.291454
2023-03-29T12:20:47.300Z,51.291393
2023-03-29T12:21:47.270Z,51.291714
2023-03-29T12:22:47.231Z,51.291805
2023-03-29T12:23:47.191Z,51.291641
2023-03-29T12:24:47.230Z,51.291679
2023-03-29T12:25:47.200Z,51.291973
2023-03-29T12:26:47.322Z,51.292274
2023-03-29T12:27:47.146Z,51.292500
2023-03-29T12:28:47.177Z,51.292252
2023-03-29T12:29:47.189Z,51.292095
2023-03-29T12:30:47.135Z,51.291985
2023-03-29T12:31:47.151Z,51.292126
2023-03-29T12:32:47.156Z,51.291935
2023-03-29T12:33:47.101Z,51.291626
2023-03-29T12:34:47.129Z,51.291489
2023-03-29T12:35:47.100Z,51.291100
2023-03-29T12:36:47.041Z,51.290813
2023-03-29T12:37:47.854Z,51.290730
2023-03-29T12:38:47.039Z,51.290783
2023-03-29T12:39:47.033Z,51.290741
2023-03-29T12:40:47.044Z,51.290638
2023-03-29T12:41:47.016Z,51.290604
2023-03-29T12:42:47.018Z,51.290733
2023-03-29T12:43:46.980Z,51.290810
2023-03-29T12:44:46.982Z,51.290970
2023-03-29T12:45:47.030Z,51.291126
2023-03-29T12:46:47.691Z,51.291218
2023-03-29T12:47:46.988Z,51.291180
2023-03-29T12:48:46.923Z,51.291077
2023-03-29T12:49:46.904Z,51.291283
2023-03-29T12:50:46.911Z,51.291210
2023-03-29T12:51:46.891Z,51.291348
2023-03-29T12:52:47.063Z,51.291267
2023-03-29T12:53:46.888Z,51.291183
2023-03-29T12:54:46.875Z,51.291279
2023-03-29T12:55:46.863Z,51.291382
2023-03-29T12:56:46.878Z,51.291195
2023-03-29T12:57:46.782Z,51.291325
2023-03-29T12:58:47.771Z,51.291290
2023-03-29T12:59:46.854Z,51.291302
2023-03-29T13:00:46.780Z,51.291195
2023-03-29T13:01:46.843Z,51.291344
2023-03-29T13:02:46.924Z,51.291328
2023-03-29T13:03:46.732Z,51.291351
2023-03-29T13:04:46.739Z,51.291344
2023-03-29T13:05:46.853Z,51.291187
2023-03-29T13:06:46.715Z,51.291172
2023-03-29T13:07:46.712Z,51.291203
2023-03-29T13:08:46.661Z,51.291214
2023-03-29T13:09:46.664Z,51.291260
2023-03-29T13:10:46.647Z,51.291218
2023-03-29T13:11:46.639Z,51.291237
2023-03-29T13:12:46.681Z,51.291203
2023-03-29T13:13:46.627Z,51.291225
2023-03-29T13:14:46.608Z,51.291248
2023-03-29T13:15:46.607Z,51.291054
2023-03-29T13:16:46.597Z,51.291176
2023-03-29T13:17:46.664Z,51.291218
2023-03-29T13:18:46.553Z,51.291084
2023-03-29T13:19:46.557Z,51.291161
2023-03-29T13:20:46.554Z,51.291176
2023-03-29T13:21:46.542Z,51.291237
2023-03-29T13:22:46.522Z,51.291157
2023-03-29T13:23:46.545Z,51.291092
2023-03-29T13:24:46.506Z,51.291058
2023-03-29T13:25:46.499Z,51.291161
2023-03-29T13:26:46.468Z,51.291168
2023-03-29T13:27:46.451Z,51.291191
2023-03-29T13:28:46.491Z,51.291172
2023-03-29T13:29:46.445Z,51.291126
2023-03-29T13:30:46.433Z,51.291130
2023-03-29T13:31:46.513Z,51.291157
2023-03-29T13:32:46.487Z,51.291164
2023-03-29T13:33:46.446Z,51.291210
2023-03-29T13:34:46.548Z,51.291012
2023-03-29T13:35:46.413Z,51.291187
2023-03-29T13:36:46.359Z,51.291119
2023-03-29T13:37:46.374Z,51.291142
2023-03-29T13:38:46.358Z,51.291168
2023-03-29T13:39:46.371Z,51.291145
2023-03-29T13:40:46.359Z,51.291187
2023-03-29T13:41:46.297Z,51.291153
2023-03-29T13:42:47.244Z,51.291161
2023-03-29T13:43:47.290Z,51.291183
2023-03-29T13:44:46.303Z,51.291145
2023-03-29T13:45:46.327Z,51.291149
2023-03-29T13:46:46.320Z,51.291161
2023-03-29T13:48:02.368Z,51.291103
2023-03-29T13:48:47.245Z,51.291187
2023-03-29T13:49:46.224Z,51.291187
2023-03-29T13:50:46.261Z,51.291172
2023-03-29T13:51:46.223Z,51.291210
2023-03-29T13:52:46.184Z,51.291111
2023-03-29T13:53:46.200Z,51.291187
2023-03-29T13:54:46.160Z,51.291134
2023-03-29T13:55:46.166Z,51.291134
2023-03-29T13:56:46.193Z,51.291080
2023-03-29T13:57:46.129Z,51.291187
2023-03-29T13:58:46.167Z,51.291271
2023-03-29T13:59:46.103Z,51.291157
2023-03-29T14:00:46.209Z,51.291138
2023-03-29T14:01:46.181Z,51.291042
2023-03-29T14:02:48.741Z,51.291092
2023-03-29T14:03:47.082Z,51.291111
2023-03-29T14:04:46.056Z,51.291119
2023-03-29T14:05:46.050Z,51.291298
2023-03-29T14:06:46.049Z,51.291378
2023-03-29T14:07:46.074Z,51.291607
2023-03-29T14:08:46.015Z,51.291344
2023-03-29T14:09:46.047Z,51.291653
2023-03-29T14:10:46.011Z,51.291443
2023-03-29T14:11:46.000Z,51.291389
2023-03-29T14:12:46.030Z,51.291332
2023-03-29T14:13:45.985Z,51.291271
2023-03-29T14:14:58.284Z,51.291180
2023-03-29T14:15:46.957Z,51.291218
2023-03-29T14:16:46.010Z,51.291046
2023-03-29T14:17:45.945Z,51.291119
2023-03-29T14:18:45.946Z,51.291195
2023-03-29T14:19:45.918Z,51.291290
2023-03-29T14:20:45.896Z,51.291294
2023-03-29T14:21:45.880Z,51.291164
2023-03-29T14:22:45.912Z,51.291164
2023-03-29T14:23:45.876Z,51.291126
2023-03-29T14:24:45.869Z,51.291176
2023-03-29T14:25:45.938Z,51.291225
2023-03-29T14:26:45.850Z,51.291161
2023-03-29T14:27:45.867Z,51.291138
2023-03-29T14:28:45.865Z,51.291161
2023-03-29T14:29:45.826Z,51.291100
2023-03-29T14:30:45.807Z,51.291145
2023-03-29T14:31:45.849Z,51.291172
2023-03-29T14:32:46.195Z,51.291180
2023-03-29T15:44:03.737Z,51.291466
2023-03-29T15:45:03.759Z,51.291466
2023-03-29T15:46:04.054Z,51.291405
2023-03-29T15:47:03.744Z,51.291214
2023-03-29T15:48:03.739Z,51.291359
2023-03-29T15:49:03.675Z,51.291138
2023-03-29T15:50:03.694Z,51.291111
2023-03-29T15:51:06.431Z,51.291275
2023-03-29T15:52:04.643Z,51.291302
2023-03-29T15:53:14.116Z,51.291088
2023-03-29T15:54:03.597Z,51.291031
2023-03-29T15:55:03.613Z,51.291519
2023-03-29T15:56:03.980Z,51.292114
2023-03-29T15:57:03.652Z,51.292145
2023-03-29T15:58:03.657Z,51.292061
2023-03-29T15:59:03.566Z,51.291599
2023-03-29T16:00:03.552Z,51.291267
2023-03-29T16:01:03.624Z,51.291462
2023-03-29T16:02:03.581Z,51.291664
2023-03-29T16:03:03.591Z,51.291416
2023-03-29T16:04:03.508Z,51.291210
2023-03-29T16:05:03.486Z,51.291698
2023-03-29T16:06:03.616Z,51.291256
2023-03-29T16:07:03.553Z,51.291344
2023-03-29T16:08:03.456Z,51.291405
2023-03-29T16:09:03.426Z,51.291481
2023-03-29T16:10:03.426Z,51.291309
2023-03-29T16:11:03.422Z,51.291153
2023-03-29T16:12:03.438Z,51.291382
2023-03-29T16:13:03.404Z,51.291718
2023-03-29T16:14:03.393Z,51.291767